Time;durP1;ratioP1;P1;durP2;ratioP2;P2;SDS_P1;SDS_P2;PMS_P1;PMS_P2;Temp;Humidity;BMP_temperature;BMP_pressure;BME280_temperature;BME280_humidity;BME280_pressure;Samples;Min_cycle;Max_cycle;Signal;HPM_P1;HPM_P2
2022/10/28 00:01:14;;;;;;;22.00;7.60;;;15.00;99.90;;;;;;5052291;28;20045;-81
2022/10/28 00:03:42;;;;;;;14.48;7.13;;;15.00;99.90;;;;;;5052143;28;20072;-81
2022/10/28 00:06:13;;;;;;;20.73;7.47;;;15.00;99.90;;;;;;5052339;28;20103;-81
2022/10/28 00:08:39;;;;;;;14.40;6.90;;;15.00;99.90;;;;;;5051985;28;20392;-81
2022/10/28 00:11:08;;;;;;;23.50;7.93;;;15.00;99.90;;;;;;5052485;28;20049;-81
2022/10/28 00:13:35;;;;;;;15.75;7.55;;;15.10;99.90;;;;;;5034350;28;20523;-83
2022/10/28 00:16:10;;;;;;;20.45;7.80;;;15.00;99.90;;;;;;5052004;28;20496;-80
2022/10/28 00:18:36;;;;;;;17.55;7.07;;;15.00;99.90;;;;;;5051314;28;20365;-81
2022/10/28 00:21:04;;;;;;;20.25;7.63;;;15.00;99.90;;;;;;5034029;28;20484;-83
2022/10/28 00:23:30;;;;;;;16.48;8.10;;;15.00;99.90;;;;;;5051933;28;20088;-82
2022/10/28 00:26:13;;;;;;;16.98;8.15;;;15.00;99.90;;;;;;5034051;28;20151;-80
2022/10/28 00:28:44;;;;;;;15.18;7.72;;;15.00;99.90;;;;;;5034300;28;20620;-82
2022/10/28 00:31:11;;;;;;;20.45;8.90;;;15.20;99.90;;;;;;5033989;28;20057;-83
2022/10/28 00:33:37;;;;;;;21.05;8.63;;;15.00;99.90;;;;;;5033316;28;20053;-78
2022/10/28 00:36:12;;;;;;;19.88;7.60;;;15.10;99.90;;;;;;5051931;28;20060;-81
2022/10/28 00:38:38;;;;;;;20.45;8.50;;;15.10;99.90;;;;;;5051809;28;20060;-79
2022/10/28 00:41:04;;;;;;;12.25;7.07;;;15.10;99.90;;;;;;5051807;28;20049;-83
2022/10/28 00:43:37;;;;;;;16.02;8.55;;;15.10;99.90;;;;;;5033969;28;20144;-83
2022/10/28 00:46:04;;;;;;;13.07;7.40;;;15.30;99.90;;;;;;5051512;28;20520;-79
2022/10/28 00:48:30;;;;;;;17.38;8.30;;;15.10;99.90;;;;;;5033601;28;20400;-82
2022/10/28 00:50:56;;;;;;;14.70;7.65;;;15.10;99.90;;;;;;5051481;28;20045;-78
2022/10/28 00:53:28;;;;;;;21.05;9.23;;;15.10;99.90;;;;;;5051143;28;20048;-79
2022/10/28 00:55:55;;;;;;;21.48;8.70;;;15.20;99.90;;;;;;5051120;28;20110;-81
2022/10/28 00:58:24;;;;;;;16.05;8.35;;;15.20;99.90;;;;;;5033242;28;20078;-81
2022/10/28 01:00:49;;;;;;;18.42;7.78;;;15.10;99.90;;;;;;5050079;28;20041;-82
2022/10/28 01:03:16;;;;;;;19.67;7.15;;;15.20;99.90;;;;;;5032690;28;20087;-82
2022/10/28 01:05:45;;;;;;;12.32;8.10;;;15.20;99.90;;;;;;5051271;28;20033;-83
2022/10/28 01:08:11;;;;;;;16.08;8.55;;;15.10;99.90;;;;;;5033299;28;20061;-83
2022/10/28 01:10:52;;;;;;;18.75;8.40;;;15.10;99.90;;;;;;5033429;28;20048;-83
2022/10/28 01:13:39;;;;;;;15.48;7.53;;;15.10;99.90;;;;;;5033156;28;20056;-81
2022/10/28 01:16:21;;;;;;;19.35;7.43;;;15.20;99.90;;;;;;5050927;28;20041;-82
2022/10/28 01:19:10;;;;;;;21.15;8.93;;;15.20;99.90;;;;;;5050914;28;20080;-83
2022/10/28 01:22:03;;;;;;;21.05;7.72;;;15.10;99.90;;;;;;5032515;28;20052;-83
2022/10/28 01:24:56;;;;;;;17.20;8.00;;;15.10;99.90;;;;;;5051051;28;20103;-84
2022/10/28 01:27:28;;;;;;;23.02;7.78;;;15.10;99.90;;;;;;5033034;28;20040;-82
2022/10/28 01:30:06;;;;;;;16.42;8.13;;;15.10;99.90;;;;;;5050889;28;20091;-81
2022/10/28 01:32:50;;;;;;;19.35;7.93;;;15.10;99.90;;;;;;5050618;28;20411;-81
2022/10/28 01:35:24;;;;;;;17.10;7.93;;;15.10;99.90;;;;;;5032980;28;20091;-81
2022/10/28 01:38:07;;;;;;;13.00;7.70;;;15.10;99.90;;;;;;5050710;28;20072;-81
2022/10/28 01:40:35;;;;;;;16.73;7.50;;;14.80;99.90;;;;;;5032967;28;20106;-80
2022/10/28 01:43:07;;;;;;;19.05;7.25;;;15.10;99.90;;;;;;5032756;28;20049;-83
2022/10/28 01:46:14;;;;;;;16.73;7.57;;;15.10;99.90;;;;;;5032867;28;20107;-83
2022/10/28 01:49:00;;;;;;;18.60;7.93;;;15.00;99.90;;;;;;5050123;28;20051;-81
2022/10/28 01:51:39;;;;;;;19.63;7.57;;;15.00;99.90;;;;;;5049970;28;20496;-83
2022/10/28 01:54:07;;;;;;;14.98;7.78;;;14.90;99.90;;;;;;5050406;28;20056;-80
2022/10/28 01:56:39;;;;;;;18.90;7.68;;;14.90;99.90;;;;;;5050503;28;20053;-83
2022/10/28 01:59:09;;;;;;;19.20;8.00;;;14.90;99.90;;;;;;5032655;28;20071;-82
2022/10/28 02:01:35;;;;;;;18.85;7.45;;;14.90;99.90;;;;;;5049284;28;20072;-83
2022/10/28 02:04:02;;;;;;;16.02;7.68;;;14.90;99.90;;;;;;5049189;28;20077;-83
2022/10/28 02:06:30;;;;;;;18.50;7.72;;;14.80;99.90;;;;;;5050171;28;20055;-82
2022/10/28 02:09:08;;;;;;;14.73;7.43;;;14.80;99.90;;;;;;5049656;28;20052;-81
2022/10/28 02:11:59;;;;;;;20.58;8.23;;;14.80;99.90;;;;;;5049831;28;20052;-83
2022/10/28 02:14:54;;;;;;;18.27;8.60;;;14.80;99.90;;;;;;5031645;28;20482;-82
2022/10/28 02:17:47;;;;;;;19.48;8.48;;;14.80;99.90;;;;;;5031185;28;20123;-81
2022/10/28 02:20:18;;;;;;;16.25;7.85;;;14.70;99.90;;;;;;5050075;28;20063;-84
2022/10/28 02:23:09;;;;;;;18.98;8.18;;;14.70;99.90;;;;;;5048690;28;20075;-81
2022/10/28 02:26:05;;;;;;;18.10;8.43;;;14.70;99.90;;;;;;4968510;28;20070;-82
2022/10/28 02:29:13;;;;;;;16.75;7.95;;;14.60;99.90;;;;;;4966858;28;20066;-80
2022/10/28 02:31:46;;;;;;;23.65;8.90;;;14.60;99.90;;;;;;4964949;28;20062;-82
2022/10/28 02:34:25;;;;;;;22.88;8.30;;;14.60;99.90;;;;;;4964163;28;20156;-81
2022/10/28 02:36:54;;;;;;;18.05;8.18;;;14.60;99.90;;;;;;4949355;29;20203;-81
2022/10/28 02:39:28;;;;;;;22.75;9.40;;;14.50;99.90;;;;;;4948981;29;20035;-80
2022/10/28 02:42:07;;;;;;;22.13;9.03;;;14.50;99.90;;;;;;4949222;29;20070;-82
2022/10/28 02:44:41;;;;;;;21.70;9.68;;;14.50;99.90;;;;;;4964866;28;20726;-83
2022/10/28 02:47:14;;;;;;;13.60;8.90;;;14.50;99.90;;;;;;4949166;29;20090;-82
2022/10/28 02:49:43;;;;;;;17.92;9.23;;;14.50;99.90;;;;;;4948962;29;20055;-82
2022/10/28 02:52:10;;;;;;;22.05;9.40;;;14.50;99.90;;;;;;4949522;29;20550;-81
2022/10/28 02:54:44;;;;;;;18.83;9.48;;;14.40;99.90;;;;;;4949033;28;20090;-81
2022/10/28 02:57:14;;;;;;;20.20;8.70;;;14.40;99.90;;;;;;4949400;29;20047;-81
2022/10/28 02:59:40;;;;;;;20.52;10.23;;;14.40;99.90;;;;;;4948520;29;20169;-81
2022/10/28 03:02:06;;;;;;;20.25;10.05;;;14.40;99.90;;;;;;4964409;28;20054;-83
2022/10/28 03:04:32;;;;;;;18.00;9.25;;;14.40;99.90;;;;;;5013605;28;20038;-81
2022/10/28 03:06:58;;;;;;;20.90;10.18;;;14.40;99.90;;;;;;5010740;28;20499;-83
2022/10/28 03:09:23;;;;;;;20.30;9.77;;;14.30;99.90;;;;;;5038849;28;20063;-81
2022/10/28 03:11:49;;;;;;;20.65;11.15;;;14.30;99.90;;;;;;5049293;28;20483;-80
2022/10/28 03:14:14;;;;;;;19.55;10.07;;;14.30;99.90;;;;;;5049511;28;20403;-80
2022/10/28 03:16:40;;;;;;;23.45;10.52;;;14.40;99.90;;;;;;5049841;28;20723;-80
2022/10/28 03:19:06;;;;;;;20.20;10.10;;;14.30;99.90;;;;;;5031394;28;20055;-81
2022/10/28 03:21:31;;;;;;;24.17;11.55;;;14.30;99.90;;;;;;5031500;28;20041;-82
2022/10/28 03:23:57;;;;;;;20.35;10.38;;;14.50;99.90;;;;;;5034326;28;20045;-81
2022/10/28 03:26:23;;;;;;;20.63;10.80;;;14.20;99.90;;;;;;5053167;28;20609;-82
2022/10/28 03:28:48;;;;;;;22.73;11.23;;;14.50;99.90;;;;;;5034698;28;20037;-82
2022/10/28 03:31:14;;;;;;;19.67;10.07;;;14.20;99.90;;;;;;5018148;28;20447;-83
2022/10/28 03:33:40;;;;;;;17.23;10.52;;;14.30;99.90;;;;;;5052196;28;20041;-79
2022/10/28 03:36:06;;;;;;;24.75;11.55;;;14.20;99.90;;;;;;5052648;28;20037;-83
2022/10/28 03:38:32;;;;;;;18.17;10.52;;;14.20;99.90;;;;;;5052321;28;20048;-83
2022/10/28 03:40:57;;;;;;;18.90;11.93;;;14.40;99.90;;;;;;5052769;28;20743;-79
2022/10/28 03:43:23;;;;;;;24.83;12.45;;;14.50;99.90;;;;;;5052739;28;20519;-80
2022/10/28 03:45:48;;;;;;;27.33;12.05;;;14.20;99.90;;;;;;5052480;28;20045;-82
2022/10/28 03:48:14;;;;;;;28.27;13.40;;;14.20;99.90;;;;;;5034614;28;20076;-83
2022/10/28 03:50:40;;;;;;;23.50;12.25;;;14.10;99.90;;;;;;5052138;28;20048;-82
2022/10/28 03:53:05;;;;;;;25.55;10.77;;;14.40;99.90;;;;;;5052425;28;20045;-83
2022/10/28 03:55:31;;;;;;;24.67;11.80;;;14.20;99.90;;;;;;5052653;28;20053;-82
2022/10/28 03:58:00;;;;;;;22.90;11.80;;;14.20;99.90;;;;;;5034533;28;20045;-82
2022/10/28 04:00:26;;;;;;;22.95;12.57;;;14.20;99.90;;;;;;5034397;28;20037;-79
2022/10/28 04:02:52;;;;;;;25.85;11.77;;;14.20;99.90;;;;;;5051403;28;20060;-82
2022/10/28 04:05:19;;;;;;;23.73;12.23;;;14.20;99.90;;;;;;5051517;28;20076;-83
2022/10/28 04:07:45;;;;;;;22.48;12.45;;;14.30;99.90;;;;;;5065255;28;20056;-83
2022/10/28 04:10:11;;;;;;;24.27;12.80;;;14.20;99.90;;;;;;5058704;28;20132;-82
2022/10/28 04:12:37;;;;;;;23.95;12.55;;;14.20;99.90;;;;;;5052525;28;20140;-82
2022/10/28 04:15:03;;;;;;;20.75;12.30;;;14.10;99.90;;;;;;5052334;28;20152;-82
2022/10/28 04:17:29;;;;;;;22.05;11.77;;;14.10;99.90;;;;;;5052092;28;20594;-82
2022/10/28 04:19:55;;;;;;;22.27;12.30;;;14.20;99.90;;;;;;5034955;28;20057;-82
2022/10/28 04:22:21;;;;;;;24.13;12.13;;;14.50;99.90;;;;;;5051581;28;20605;-83
2022/10/28 04:24:46;;;;;;;23.85;12.98;;;14.10;99.90;;;;;;5051499;28;20057;-82
2022/10/28 04:27:12;;;;;;;26.30;13.90;;;14.00;99.90;;;;;;5033588;28;20063;-83
2022/10/28 04:29:38;;;;;;;23.45;13.90;;;14.00;99.90;;;;;;5033489;28;20048;-83
2022/10/28 04:32:03;;;;;;;26.50;12.57;;;14.20;99.90;;;;;;5051194;28;20045;-83
2022/10/28 04:34:29;;;;;;;24.17;12.73;;;14.00;99.90;;;;;;5050628;28;20053;-81
2022/10/28 04:36:54;;;;;;;25.83;13.20;;;14.00;99.90;;;;;;5033563;28;20040;-83
2022/10/28 04:39:20;;;;;;;30.42;14.38;;;13.90;99.90;;;;;;5033306;28;20049;-81
2022/10/28 04:41:46;;;;;;;26.33;13.25;;;14.10;99.90;;;;;;5033711;28;20049;-82
2022/10/28 04:44:11;;;;;;;23.10;13.18;;;13.90;99.90;;;;;;5034087;28;20049;-82
2022/10/28 04:46:37;;;;;;;23.48;12.68;;;13.90;99.90;;;;;;5016991;28;20053;-83
2022/10/28 04:49:03;;;;;;;27.30;13.48;;;14.30;99.90;;;;;;5016983;28;20060;-83
2022/10/28 04:51:28;;;;;;;22.35;12.95;;;13.90;99.90;;;;;;5051169;28;20045;-82
2022/10/28 04:53:54;;;;;;;24.95;13.73;;;13.80;99.90;;;;;;5051245;28;20160;-80
2022/10/28 04:56:19;;;;;;;28.30;14.25;;;13.90;99.90;;;;;;5051740;28;20103;-80
2022/10/28 04:58:46;;;;;;;27.45;15.48;;;14.20;99.90;;;;;;5051552;28;20040;-80
2022/10/28 05:01:12;;;;;;;30.65;13.63;;;13.90;99.90;;;;;;5051158;28;20123;-82
2022/10/28 05:03:38;;;;;;;26.52;14.00;;;14.00;99.90;;;;;;5051170;28;20123;-83
2022/10/28 05:06:03;;;;;;;32.45;14.93;;;13.90;99.90;;;;;;5051216;28;20053;-80
2022/10/28 05:08:29;;;;;;;33.42;15.55;;;13.80;99.90;;;;;;5050786;28;20087;-81
2022/10/28 05:10:55;;;;;;;26.15;13.38;;;13.80;99.90;;;;;;5050780;28;20108;-80
2022/10/28 05:13:20;;;;;;;32.58;13.98;;;13.80;99.90;;;;;;5033333;28;20099;-80
2022/10/28 05:15:49;;;;;;;27.02;13.63;;;13.90;99.90;;;;;;5032765;28;20051;-82
2022/10/28 05:18:16;;;;;;;30.70;14.73;;;14.00;99.90;;;;;;5051115;28;20134;-82
2022/10/28 05:20:42;;;;;;;26.15;14.75;;;13.80;99.90;;;;;;5032763;28;21077;-81
2022/10/28 05:23:08;;;;;;;34.08;14.50;;;13.80;99.90;;;;;;5050775;28;20045;-82
2022/10/28 05:25:34;;;;;;;33.92;14.27;;;13.70;99.90;;;;;;5033110;28;20040;-80
2022/10/28 05:28:00;;;;;;;29.77;13.93;;;13.70;99.90;;;;;;5033061;28;20128;-80
2022/10/28 05:30:26;;;;;;;31.65;14.15;;;13.70;99.90;;;;;;5050859;28;20179;-79
2022/10/28 05:33:01;;;;;;;29.15;14.18;;;13.90;99.90;;;;;;5050620;28;20132;-80
2022/10/28 05:35:28;;;;;;;24.48;13.65;;;13.70;99.90;;;;;;5049910;28;20040;-82
2022/10/28 05:37:53;;;;;;;29.05;14.48;;;13.80;99.90;;;;;;5050786;28;20045;-78
2022/10/28 05:40:19;;;;;;;28.27;13.85;;;13.70;99.90;;;;;;5050410;28;20040;-79
2022/10/28 05:42:45;;;;;;;25.75;14.07;;;13.90;99.90;;;;;;5051164;28;20385;-82
2022/10/28 05:45:11;;;;;;;27.35;13.25;;;13.60;99.90;;;;;;5050483;28;20037;-82
2022/10/28 05:47:42;;;;;;;25.55;13.77;;;13.60;99.90;;;;;;5033193;28;20048;-81
2022/10/28 05:50:09;;;;;;;26.23;13.65;;;13.60;99.90;;;;;;5050906;28;20049;-80
2022/10/28 05:52:34;;;;;;;25.92;13.45;;;13.60;99.90;;;;;;5032388;28;20122;-81
2022/10/28 05:55:00;;;;;;;24.88;13.90;;;13.60;99.90;;;;;;5055094;28;20068;-82
2022/10/28 05:57:25;;;;;;;24.77;13.75;;;13.80;99.90;;;;;;5052532;28;20048;-81
2022/10/28 05:59:51;;;;;;;25.73;13.57;;;13.60;99.90;;;;;;5052615;28;20137;-82
2022/10/28 06:02:17;;;;;;;26.15;13.65;;;13.60;99.90;;;;;;5070151;28;20376;-80
2022/10/28 06:04:42;;;;;;;25.70;13.80;;;13.50;99.90;;;;;;5070225;28;20049;-78
2022/10/28 06:07:08;;;;;;;25.85;14.13;;;13.50;99.90;;;;;;5052319;28;20357;-82
2022/10/28 06:09:34;;;;;;;28.30;14.20;;;13.50;99.90;;;;;;5061763;28;20443;-81
2022/10/28 06:12:00;;;;;;;24.77;12.93;;;13.50;99.90;;;;;;5050118;28;20068;-82
2022/10/28 06:14:25;;;;;;;23.70;13.13;;;13.50;99.90;;;;;;5050232;28;20056;-82
2022/10/28 06:16:51;;;;;;;24.33;13.45;;;13.60;99.90;;;;;;5032173;28;20049;-83
2022/10/28 06:19:16;;;;;;;23.85;13.65;;;13.50;99.90;;;;;;5031954;28;20057;-82
2022/10/28 06:21:43;;;;;;;29.65;14.48;;;13.70;99.90;;;;;;5031840;28;20049;-82
2022/10/28 06:24:09;;;;;;;24.73;13.20;;;13.50;99.90;;;;;;5049716;28;20041;-80
2022/10/28 06:26:35;;;;;;;30.08;14.23;;;13.50;99.90;;;;;;5049873;28;20510;-81
2022/10/28 06:29:00;;;;;;;29.08;13.95;;;13.50;99.90;;;;;;5052106;28;20055;-80
2022/10/28 06:31:26;;;;;;;28.88;13.52;;;13.70;99.90;;;;;;5054749;28;20096;-79
2022/10/28 06:33:51;;;;;;;27.77;12.13;;;13.50;99.90;;;;;;5049671;28;20057;-81
2022/10/28 06:36:17;;;;;;;23.30;12.75;;;13.50;99.90;;;;;;5049678;28;20045;-79
2022/10/28 06:38:42;;;;;;;23.35;12.85;;;13.70;99.90;;;;;;5048042;28;20081;-79
2022/10/28 06:41:08;;;;;;;26.30;13.80;;;13.50;99.90;;;;;;5032950;28;20053;-83
2022/10/28 06:43:34;;;;;;;26.45;12.15;;;13.50;99.90;;;;;;5032148;28;20084;-79
2022/10/28 06:46:01;;;;;;;20.63;11.80;;;13.50;99.90;;;;;;5031456;28;20060;-80
2022/10/28 06:48:26;;;;;;;24.30;11.50;;;13.60;99.90;;;;;;5031481;28;20053;-82
2022/10/28 06:50:56;;;;;;;18.70;11.48;;;13.50;99.90;;;;;;5050564;28;20033;-79
2022/10/28 06:53:23;;;;;;;20.02;11.57;;;13.50;99.90;;;;;;5032007;28;20053;-82
2022/10/28 06:55:56;;;;;;;22.13;12.13;;;13.50;99.90;;;;;;5049782;28;20052;-79
2022/10/28 06:58:23;;;;;;;21.30;11.55;;;13.60;99.90;;;;;;5034958;28;20114;-80
2022/10/28 07:00:49;;;;;;;25.60;12.20;;;13.60;99.90;;;;;;5035651;28;20558;-79
2022/10/28 07:03:15;;;;;;;28.17;12.60;;;13.60;99.90;;;;;;5035771;28;20052;-79
2022/10/28 07:05:41;;;;;;;23.67;11.77;;;13.70;99.90;;;;;;5053524;28;20170;-81
2022/10/28 07:08:06;;;;;;;25.10;11.55;;;13.60;99.90;;;;;;5053312;28;20127;-83
2022/10/28 07:10:32;;;;;;;17.50;10.85;;;13.70;99.90;;;;;;5053398;28;20510;-82
2022/10/28 07:12:58;;;;;;;23.17;11.55;;;13.70;99.90;;;;;;5053482;28;20033;-79
2022/10/28 07:15:23;;;;;;;22.95;11.20;;;13.90;99.90;;;;;;5018387;28;20449;-80
2022/10/28 07:17:56;;;;;;;25.35;10.75;;;13.70;99.90;;;;;;5035785;28;20059;-81
2022/10/28 07:20:23;;;;;;;23.17;10.88;;;13.80;99.90;;;;;;5053241;28;20056;-81
2022/10/28 07:22:58;;;;;;;23.40;10.57;;;13.80;99.90;;;;;;5053376;28;20384;-81
2022/10/28 07:25:24;;;;;;;24.33;11.45;;;13.80;99.90;;;;;;5054980;28;20392;-80
2022/10/28 07:27:50;;;;;;;21.98;10.50;;;14.10;99.90;;;;;;5055116;28;20067;-80
2022/10/28 07:30:15;;;;;;;20.48;9.88;;;13.90;99.90;;;;;;5072746;28;20396;-79
2022/10/28 07:32:41;;;;;;;32.35;10.50;;;13.90;99.90;;;;;;5073187;28;20127;-79
2022/10/28 07:35:07;;;;;;;22.88;10.40;;;14.00;99.90;;;;;;5055046;28;20064;-80
2022/10/28 07:37:32;;;;;;;19.52;10.27;;;14.10;99.90;;;;;;5072135;28;20406;-77
2022/10/28 07:39:58;;;;;;;23.02;9.25;;;14.10;99.90;;;;;;5034974;28;20513;-82
2022/10/28 07:42:24;;;;;;;16.55;8.93;;;14.20;99.90;;;;;;5052534;28;20575;-81
2022/10/28 07:44:49;;;;;;;20.77;8.93;;;14.20;99.90;;;;;;5063573;28;20102;-79
2022/10/28 07:47:16;;;;;;;21.20;9.10;;;14.30;99.90;;;;;;5069621;28;20041;-78
2022/10/28 07:49:42;;;;;;;22.65;8.75;;;14.40;99.90;;;;;;5034963;28;20051;-81
2022/10/28 07:52:08;;;;;;;21.05;8.45;;;14.70;99.90;;;;;;5034612;28;20052;-76
2022/10/28 07:54:34;;;;;;;19.33;9.18;;;14.50;99.90;;;;;;5052483;28;20045;-78
2022/10/28 07:57:00;;;;;;;22.65;8.80;;;14.60;99.90;;;;;;5038496;28;20788;-78
2022/10/28 07:59:25;;;;;;;21.90;8.23;;;14.70;99.90;;;;;;5044787;28;20033;-77
2022/10/28 08:01:51;;;;;;;23.52;9.30;;;14.70;99.90;;;;;;5052815;28;20048;-77
2022/10/28 08:04:17;;;;;;;19.48;8.13;;;14.70;99.90;;;;;;5052628;28;20045;-76
2022/10/28 08:06:43;;;;;;;20.48;8.32;;;15.00;99.90;;;;;;5052558;28;20029;-76
2022/10/28 08:09:08;;;;;;;18.95;8.77;;;14.90;99.90;;;;;;5051816;28;20096;-77
2022/10/28 08:11:34;;;;;;;19.92;8.40;;;15.10;99.90;;;;;;5034422;28;20087;-76
2022/10/28 08:14:01;;;;;;;18.73;7.50;;;15.00;99.90;;;;;;5052370;28;20095;-76
2022/10/28 08:16:27;;;;;;;16.00;8.65;;;15.10;99.90;;;;;;5052133;28;20127;-76
2022/10/28 08:18:55;;;;;;;18.17;7.50;;;15.10;99.90;;;;;;5019730;28;20955;-80
2022/10/28 08:21:21;;;;;;;18.50;8.02;;;15.20;99.90;;;;;;5052335;28;20055;-78
2022/10/28 08:23:47;;;;;;;20.60;7.80;;;15.40;99.90;;;;;;5051958;28;20037;-77
2022/10/28 08:26:15;;;;;;;20.38;7.40;;;15.40;99.90;;;;;;5033962;28;20052;-78
2022/10/28 08:28:41;;;;;;;19.90;7.68;;;15.50;99.90;;;;;;5034280;28;20048;-77
2022/10/28 08:31:11;;;;;;;16.33;7.38;;;15.50;99.90;;;;;;5034290;28;20060;-80
2022/10/28 08:33:43;;;;;;;21.95;7.10;;;15.70;99.90;;;;;;5034285;28;20076;-77
2022/10/28 08:36:13;;;;;;;19.08;7.32;;;15.80;99.90;;;;;;5052103;28;20094;-78
2022/10/28 08:38:39;;;;;;;26.60;6.70;;;15.90;99.90;;;;;;5051950;28;20068;-79
2022/10/28 08:41:29;;;;;;;19.45;6.93;;;16.00;99.90;;;;;;5051461;28;20037;-81
2022/10/28 08:43:54;;;;;;;22.70;7.75;;;16.10;99.90;;;;;;5051725;28;20052;-79
2022/10/28 08:46:50;;;;;;;21.35;6.45;;;16.20;99.90;;;;;;5033741;28;20045;-79
2022/10/28 08:49:20;;;;;;;18.23;6.90;;;16.30;99.90;;;;;;5051185;28;20484;-78
2022/10/28 08:52:12;;;;;;;22.23;6.63;;;16.30;99.90;;;;;;5033142;28;20133;-78
2022/10/28 08:54:49;;;;;;;17.65;7.13;;;16.40;99.90;;;;;;5050591;28;20086;-78
2022/10/28 08:57:22;;;;;;;21.05;6.03;;;16.40;99.90;;;;;;5033566;28;20064;-78
2022/10/28 08:59:51;;;;;;;16.10;6.95;;;16.40;99.90;;;;;;5033020;28;20052;-78
2022/10/28 09:02:20;;;;;;;22.05;7.10;;;16.50;99.90;;;;;;5065140;28;20056;-78
2022/10/28 09:04:50;;;;;;;18.45;5.80;;;16.70;99.90;;;;;;5033501;28;20041;-79
2022/10/28 09:07:21;;;;;;;17.50;6.78;;;16.50;99.90;;;;;;5051908;28;20063;-80
2022/10/28 09:09:49;;;;;;;15.15;6.25;;;16.50;99.90;;;;;;5051533;28;20037;-79
2022/10/28 09:12:52;;;;;;;19.65;6.53;;;16.60;99.90;;;;;;5033565;28;20096;-78
2022/10/28 09:15:30;;;;;;;24.10;7.22;;;16.60;99.90;;;;;;5033223;28;20056;-78
2022/10/28 09:18:11;;;;;;;19.27;6.75;;;16.60;99.90;;;;;;5033540;28;20041;-79
2022/10/28 09:20:50;;;;;;;15.18;5.97;;;16.60;99.90;;;;;;5049857;28;20040;-77
2022/10/28 09:23:32;;;;;;;20.15;6.45;;;16.70;99.90;;;;;;5050810;28;20507;-78
2022/10/28 09:26:32;;;;;;;24.95;6.93;;;16.70;99.90;;;;;;5033049;28;20052;-77
2022/10/28 09:29:03;;;;;;;19.52;6.15;;;16.70;99.90;;;;;;5032853;28;20138;-79
2022/10/28 09:31:39;;;;;;;17.98;6.45;;;16.70;99.90;;;;;;5032752;28;20049;-77
2022/10/28 09:34:24;;;;;;;17.10;6.45;;;16.80;99.90;;;;;;5050668;28;20045;-77
2022/10/28 09:36:58;;;;;;;17.65;6.43;;;16.70;99.90;;;;;;5050788;28;20079;-78
2022/10/28 09:39:28;;;;;;;;;;;16.80;99.90;;;;;;5033244;28;20048;-78
2022/10/28 09:41:58;;;;;;;15.73;6.63;;;16.70;99.90;;;;;;5032230;28;19960;-82
2022/10/28 09:44:23;;;;;;;14.32;6.25;;;16.80;99.90;;;;;;5032372;28;20115;-79
2022/10/28 09:46:57;;;;;;;15.43;6.00;;;16.70;99.90;;;;;;5032186;28;20099;-78
2022/10/28 09:49:36;;;;;;;20.50;6.53;;;16.80;99.90;;;;;;5032218;28;20377;-79
2022/10/28 09:52:07;;;;;;;14.07;6.38;;;16.80;99.90;;;;;;5050096;28;20068;-79
2022/10/28 09:54:37;;;;;;;17.20;6.40;;;16.80;99.90;;;;;;5049994;28;20068;-79
2022/10/28 09:57:03;;;;;;;18.20;6.47;;;16.90;99.90;;;;;;5049249;28;20048;-78
2022/10/28 09:59:29;;;;;;;20.92;6.60;;;16.90;99.90;;;;;;5032021;28;20051;-77
2022/10/28 10:01:55;;;;;;;15.70;6.45;;;17.00;99.90;;;;;;5050125;28;20076;-79
2022/10/28 10:04:26;;;;;;;17.08;6.15;;;17.00;99.90;;;;;;5032493;28;20057;-81
2022/10/28 10:07:09;;;;;;;17.02;7.07;;;17.10;99.90;;;;;;5050079;28;20076;-79
2022/10/28 10:09:37;;;;;;;15.63;6.28;;;17.10;99.90;;;;;;5049644;28;20060;-79
2022/10/28 10:12:11;;;;;;;13.38;6.03;;;17.20;99.90;;;;;;5037403;28;20052;-77
2022/10/28 10:14:39;;;;;;;17.05;6.15;;;17.30;99.90;;;;;;5030623;28;20510;-77
2022/10/28 10:17:33;;;;;;;17.58;5.88;;;17.30;99.90;;;;;;5049853;28;20049;-78
2022/10/28 10:20:05;;;;;;;19.80;6.47;;;17.40;99.90;;;;;;4968920;28;20785;-77
2022/10/28 10:22:36;;;;;;;17.30;6.30;;;17.50;99.90;;;;;;4968787;28;20102;-78
2022/10/28 10:25:18;;;;;;;18.85;6.63;;;17.50;99.90;;;;;;4952644;28;20059;-78
2022/10/28 10:28:02;;;;;;;20.13;6.15;;;17.50;99.90;;;;;;4984551;28;20053;-80
2022/10/28 10:30:32;;;;;;;17.05;5.32;;;17.60;99.90;;;;;;4988862;28;20097;-78
2022/10/28 10:32:58;;;;;;;17.70;5.75;;;17.70;99.90;;;;;;4972528;28;20054;-78
2022/10/28 10:35:30;;;;;;;23.17;5.63;;;17.80;99.90;;;;;;4988908;28;20054;-78
2022/10/28 10:37:59;;;;;;;22.67;6.10;;;17.90;99.90;;;;;;4988871;28;20062;-79
2022/10/28 10:40:30;;;;;;;19.30;6.22;;;18.10;99.90;;;;;;4989067;28;20527;-77
2022/10/28 10:43:13;;;;;;;16.85;5.88;;;18.30;99.90;;;;;;4984916;28;20578;-76
2022/10/28 10:45:39;;;;;;;18.20;6.00;;;18.60;99.90;;;;;;4943469;28;20043;-78
2022/10/28 10:48:14;;;;;;;21.85;5.70;;;18.50;99.90;;;;;;4953485;28;20081;-79
2022/10/28 10:50:43;;;;;;;18.45;5.55;;;18.50;99.90;;;;;;4962155;28;20101;-78
2022/10/28 10:53:26;;;;;;;22.27;5.03;;;18.60;99.90;;;;;;4988830;28;20065;-80
2022/10/28 10:55:57;;;;;;;12.45;5.03;;;18.60;99.90;;;;;;4989960;28;20109;-78
2022/10/28 10:58:25;;;;;;;12.82;4.82;;;18.60;99.90;;;;;;5030332;28;20120;-81
2022/10/28 11:00:54;;;;;;;20.90;5.60;;;18.60;99.90;;;;;;5012726;28;20115;-79
2022/10/28 11:03:22;;;;;;;19.38;4.93;;;18.70;99.90;;;;;;5030466;28;20129;-79
2022/10/28 11:05:55;;;;;;;22.35;5.85;;;18.70;99.90;;;;;;5030348;28;20400;-78
2022/10/28 11:08:41;;;;;;;22.17;5.40;;;18.80;99.90;;;;;;5013476;28;20108;-78
2022/10/28 11:11:18;;;;;;;19.63;4.97;;;19.00;99.90;;;;;;5049085;28;20048;-78
2022/10/28 11:13:45;;;;;;;14.60;5.03;;;19.10;99.90;;;;;;5050189;28;20045;-78
2022/10/28 11:16:21;;;;;;;16.92;5.32;;;19.20;99.90;;;;;;5050201;28;20511;-80
2022/10/28 11:18:49;;;;;;;15.95;4.90;;;19.20;99.90;;;;;;5050228;28;20102;-76
2022/10/28 11:21:17;;;;;;;14.65;4.95;;;19.40;99.90;;;;;;5050224;28;20052;-78
2022/10/28 11:24:27;;;;;;;21.98;5.97;;;19.50;99.90;;;;;;5050427;28;20045;-79
2022/10/28 11:27:06;;;;;;;16.00;4.82;;;19.70;99.90;;;;;;4988054;28;20102;-79
2022/10/28 11:29:32;;;;;;;22.08;4.85;;;19.90;99.90;;;;;;4987595;28;20138;-79
2022/10/28 11:32:06;;;;;;;24.92;4.70;;;20.00;99.90;;;;;;4988530;28;20066;-78
2022/10/28 11:34:37;;;;;;;21.00;4.75;;;20.10;99.90;;;;;;4988530;28;20054;-79
2022/10/28 11:37:20;;;;;;;24.40;6.85;;;20.10;99.90;;;;;;4988494;28;20054;-79
2022/10/28 11:40:13;;;;;;;20.77;4.13;;;20.20;99.90;;;;;;4988537;28;20042;-79
2022/10/28 11:42:55;;;;;;;16.73;5.05;;;20.30;99.90;;;;;;4988137;28;20039;-80
2022/10/28 11:45:47;;;;;;;17.27;4.45;;;20.30;99.90;;;;;;4991611;28;20058;-79
2022/10/28 11:48:39;;;;;;;17.48;5.20;;;20.50;99.90;;;;;;4975892;28;20062;-78
2022/10/28 11:51:30;;;;;;;14.57;4.10;;;20.50;99.90;;;;;;4952965;29;20051;-77
2022/10/28 11:54:15;;;;;;;19.48;4.68;;;20.60;99.90;;;;;;4952698;29;20511;-77
2022/10/28 11:56:54;;;;;;;16.20;4.05;;;20.70;99.90;;;;;;4933952;29;20569;-78
2022/10/28 11:59:35;;;;;;;22.52;4.63;;;20.70;99.90;;;;;;4933673;29;20107;-79
2022/10/28 12:02:26;;;;;;;13.68;4.53;;;20.80;99.90;;;;;;4936096;28;20155;-80
2022/10/28 12:05:29;;;;;;;22.48;5.38;;;20.70;99.90;;;;;;4955878;28;20658;-78
2022/10/28 12:07:54;;;;;;;15.43;4.22;;;20.70;99.90;;;;;;4972130;28;20055;-78
2022/10/28 12:10:49;;;;;;;16.27;3.90;;;20.60;99.90;;;;;;4971992;28;20057;-81
2022/10/28 12:13:33;;;;;;;20.57;4.20;;;20.60;99.90;;;;;;4971528;28;20282;-79
2022/10/28 12:16:24;;;;;;;14.57;4.35;;;20.60;99.90;;;;;;4971899;28;20237;-78
2022/10/28 12:18:54;;;;;;;15.90;4.47;;;20.50;99.90;;;;;;4972041;28;20460;-77
2022/10/28 12:21:34;;;;;;;21.88;5.28;;;20.50;99.90;;;;;;4987810;28;20487;-78
2022/10/28 12:24:04;;;;;;;16.38;4.20;;;20.40;99.90;;;;;;4991207;28;20082;-77
2022/10/28 12:26:38;;;;;;;18.42;4.57;;;20.40;99.90;;;;;;4991029;28;20050;-78
2022/10/28 12:29:12;;;;;;;19.42;5.05;;;20.30;99.90;;;;;;5044910;28;20056;-79
2022/10/28 12:31:46;;;;;;;18.73;4.50;;;20.30;99.90;;;;;;5052387;28;20049;-79
2022/10/28 12:34:17;;;;;;;14.73;4.75;;;20.20;99.90;;;;;;5052679;28;20040;-80
2022/10/28 12:36:51;;;;;;;19.83;4.50;;;20.20;99.90;;;;;;5052674;28;20048;-80
2022/10/28 12:39:42;;;;;;;15.23;4.22;;;20.10;99.90;;;;;;5052599;28;20099;-77
2022/10/28 12:42:17;;;;;;;21.98;4.80;;;20.10;99.90;;;;;;5052672;28;20041;-79
2022/10/28 12:44:43;;;;;;;13.63;4.80;;;20.10;99.90;;;;;;5052231;28;20037;-78
2022/10/28 12:47:26;;;;;;;11.90;4.18;;;20.00;99.90;;;;;;5052695;28;20045;-78
2022/10/28 12:50:18;;;;;;;21.17;4.32;;;20.00;99.90;;;;;;5051505;28;20515;-80
2022/10/28 12:53:02;;;;;;;19.10;5.65;;;20.00;99.90;;;;;;5039574;28;20057;-78
2022/10/28 12:55:47;;;;;;;19.67;5.07;;;20.00;99.90;;;;;;5034035;28;20049;-79